createdAt,value
2019-01-25T00:01:39.028Z,14.10
2019-01-25T00:04:07.320Z,14.67
2019-01-25T00:06:35.599Z,15.10
2019-01-25T00:09:06.733Z,13.73
2019-01-25T00:11:34.985Z,14.70
2019-01-25T00:14:03.358Z,14.77
2019-01-25T00:16:31.592Z,13.33
2019-01-25T00:18:59.963Z,14.53
2019-01-25T00:21:28.255Z,13.63
2019-01-25T00:23:56.624Z,14.53
2019-01-25T00:26:24.982Z,14.87
2019-01-25T00:28:53.333Z,13.80
2019-01-25T00:31:21.710Z,13.83
2019-01-25T00:33:49.951Z,14.00
2019-01-25T00:36:18.398Z,13.33
2019-01-25T00:38:46.630Z,14.80
2019-01-25T00:41:14.859Z,14.30
2019-01-25T00:43:43.129Z,14.70
2019-01-25T00:46:11.379Z,13.90
2019-01-25T00:48:39.672Z,14.00
2019-01-25T00:51:08.438Z,14.00
2019-01-25T00:53:36.655Z,13.90
2019-01-25T00:56:05.407Z,13.53
2019-01-25T00:58:33.687Z,13.37
2019-01-25T01:01:01.939Z,14.63
2019-01-25T01:03:30.197Z,13.90
2019-01-25T01:05:58.525Z,14.47
2019-01-25T01:08:26.784Z,14.87
2019-01-25T01:10:55.032Z,15.40
2019-01-25T01:13:23.272Z,15.67
2019-01-25T01:15:51.498Z,16.33
2019-01-25T01:18:22.150Z,15.57
2019-01-25T01:20:50.555Z,15.97
2019-01-25T01:23:18.838Z,17.10
2019-01-25T01:25:47.049Z,15.53
2019-01-25T01:28:17.995Z,16.43
2019-01-25T01:30:46.343Z,16.07
2019-01-25T01:33:14.581Z,15.87
2019-01-25T01:35:42.859Z,16.27
2019-01-25T01:38:14.266Z,16.33
2019-01-25T01:40:42.526Z,16.40
2019-01-25T01:43:10.747Z,15.33
2019-01-25T01:45:39.001Z,15.90
2019-01-25T01:48:07.239Z,16.10
2019-01-25T01:50:35.469Z,16.73
2019-01-25T01:53:03.704Z,16.63
2019-01-25T01:55:31.957Z,16.27
2019-01-25T01:58:19.854Z,15.23
2019-01-25T02:00:48.135Z,15.90
2019-01-25T02:03:16.385Z,15.57
2019-01-25T02:05:44.635Z,16.23
2019-01-25T02:08:12.900Z,15.90
2019-01-25T02:10:41.108Z,15.40
2019-01-25T02:13:09.346Z,15.07
2019-01-25T02:15:37.573Z,15.80
2019-01-25T02:18:05.832Z,16.57
2019-01-25T02:20:34.071Z,15.30
2019-01-25T02:23:02.422Z,15.23
2019-01-25T02:25:30.726Z,14.13
2019-01-25T02:28:00.558Z,14.80
2019-01-25T02:30:28.843Z,15.23
2019-01-25T02:32:57.068Z,14.67
2019-01-25T02:35:25.291Z,15.40
2019-01-25T02:37:53.561Z,14.67
2019-01-25T02:40:22.652Z,15.10
2019-01-25T02:42:50.919Z,15.40
2019-01-25T02:45:19.181Z,14.53
2019-01-25T02:47:47.421Z,14.40
2019-01-25T02:50:16.499Z,14.50
2019-01-25T02:52:44.722Z,15.27
2019-01-25T02:55:12.970Z,13.97
2019-01-25T02:57:41.193Z,13.13
2019-01-25T03:00:19.391Z,13.40
2019-01-25T03:02:47.714Z,13.07
2019-01-25T03:05:16.357Z,14.50
2019-01-25T03:07:44.693Z,13.93
2019-01-25T03:10:12.928Z,14.43
2019-01-25T03:12:41.168Z,13.90
2019-01-25T03:15:13.057Z,13.63
2019-01-25T03:17:45.113Z,13.80
2019-01-25T03:20:13.369Z,13.80
2019-01-25T03:22:41.601Z,14.93
2019-01-25T03:25:10.658Z,13.97
2019-01-25T03:27:39.006Z,14.67
2019-01-25T03:30:08.649Z,14.37
2019-01-25T03:32:37.854Z,15.70
2019-01-25T03:35:06.439Z,14.47
2019-01-25T03:37:34.713Z,14.63
2019-01-25T03:40:03.002Z,13.87
2019-01-25T03:42:32.663Z,14.17
2019-01-25T03:45:00.969Z,13.97
2019-01-25T03:47:31.060Z,13.53
2019-01-25T03:49:59.321Z,13.43
2019-01-25T03:52:27.558Z,14.33
2019-01-25T03:54:56.739Z,13.60
2019-01-25T03:57:25.031Z,14.63
2019-01-25T03:59:53.257Z,14.27
2019-01-25T04:02:26.548Z,14.13
2019-01-25T04:04:54.786Z,13.37
2019-01-25T04:07:23.046Z,13.93
2019-01-25T04:09:51.292Z,14.47
2019-01-25T04:12:19.528Z,15.40
2019-01-25T04:14:47.803Z,14.03
2019-01-25T04:17:16.065Z,14.33
2019-01-25T04:19:44.283Z,14.93
2019-01-25T04:22:12.545Z,15.37
2019-01-25T04:24:40.755Z,14.40
2019-01-25T04:27:09.031Z,13.70
2019-01-25T04:29:37.263Z,14.53
2019-01-25T04:32:07.509Z,14.47
2019-01-25T04:34:35.784Z,14.47
2019-01-25T04:37:04.029Z,14.60
2019-01-25T04:39:32.371Z,14.73
2019-01-25T04:42:00.648Z,14.63
2019-01-25T04:44:28.940Z,15.03
2019-01-25T04:46:57.280Z,15.07
2019-01-25T04:49:25.552Z,15.07
2019-01-25T04:51:53.813Z,14.80
2019-01-25T04:54:22.055Z,16.17
2019-01-25T04:56:50.287Z,14.97
2019-01-25T04:59:18.536Z,15.50
2019-01-25T05:01:46.894Z,14.53
2019-01-25T05:04:15.140Z,15.13
2019-01-25T05:06:44.333Z,15.50
2019-01-25T05:09:12.609Z,15.27
2019-01-25T05:11:40.842Z,14.93
2019-01-25T05:14:09.113Z,14.47
2019-01-25T05:16:37.333Z,15.43
2019-01-25T05:19:05.595Z,15.63
2019-01-25T05:21:33.879Z,15.00
2019-01-25T05:24:08.183Z,14.30
2019-01-25T05:26:37.492Z,14.60
2019-01-25T05:29:05.799Z,14.90
2019-01-25T05:31:34.049Z,16.03
2019-01-25T05:34:02.343Z,16.10
2019-01-25T05:36:30.593Z,15.30
2019-01-25T05:38:58.925Z,16.77
2019-01-25T05:41:28.664Z,15.80
2019-01-25T05:43:57.152Z,15.77
2019-01-25T05:46:25.523Z,15.57
2019-01-25T05:48:53.788Z,16.70
2019-01-25T05:51:22.219Z,16.27
2019-01-25T05:53:53.341Z,17.17
2019-01-25T05:56:22.008Z,16.27
2019-01-25T05:58:50.260Z,15.37
2019-01-25T06:01:18.555Z,16.63
2019-01-25T06:03:47.796Z,16.27
2019-01-25T06:06:16.078Z,15.63
2019-01-25T06:08:44.364Z,16.83
2019-01-25T06:11:13.259Z,16.67
2019-01-25T06:13:44.827Z,16.57
2019-01-25T06:16:13.153Z,16.03
2019-01-25T06:18:41.491Z,19.10
2019-01-25T06:21:09.773Z,20.73
2019-01-25T06:23:38.013Z,17.27
2019-01-25T06:26:08.792Z,16.87
2019-01-25T06:28:37.077Z,16.70
2019-01-25T06:31:05.341Z,16.07
2019-01-25T06:33:33.592Z,15.67
2019-01-25T06:36:01.831Z,16.10
2019-01-25T06:38:30.088Z,15.27
2019-01-25T06:40:58.390Z,15.63
2019-01-25T06:43:26.660Z,16.47
2019-01-25T06:45:54.938Z,20.60
2019-01-25T06:48:23.180Z,21.73
2019-01-25T06:50:51.476Z,21.80
2019-01-25T06:53:21.866Z,20.37
2019-01-25T06:55:50.090Z,32.60
2019-01-25T06:58:36.116Z,22.00
2019-01-25T07:01:11.930Z,21.70
2019-01-25T07:03:40.191Z,20.50
2019-01-25T07:06:08.421Z,17.03
2019-01-25T07:08:36.724Z,17.23
2019-01-25T07:11:04.971Z,17.37
2019-01-25T07:13:33.208Z,17.10
2019-01-25T07:16:01.501Z,15.87
2019-01-25T07:18:29.895Z,15.53
2019-01-25T07:20:58.172Z,16.50
2019-01-25T07:23:26.399Z,15.47
2019-01-25T07:25:54.698Z,16.53
2019-01-25T07:28:22.952Z,16.60
2019-01-25T07:30:51.273Z,17.63
2019-01-25T07:33:19.607Z,19.10
2019-01-25T07:35:47.911Z,17.97
2019-01-25T07:38:18.645Z,16.47
2019-01-25T07:40:47.501Z,17.87
2019-01-25T07:43:15.780Z,17.50
2019-01-25T07:45:44.081Z,17.70
2019-01-25T07:48:12.351Z,17.77
2019-01-25T07:50:40.578Z,17.63
2019-01-25T07:53:08.864Z,17.03
2019-01-25T07:55:37.124Z,17.00
2019-01-25T07:58:05.953Z,17.80
2019-01-25T08:00:34.224Z,17.17
2019-01-25T08:03:02.532Z,16.20
2019-01-25T08:05:30.795Z,16.77
2019-01-25T08:07:59.144Z,17.73
2019-01-25T08:10:27.476Z,16.67
2019-01-25T08:12:55.860Z,17.33
2019-01-25T08:15:24.156Z,17.53
2019-01-25T08:17:52.529Z,16.57
2019-01-25T08:20:20.849Z,17.70
2019-01-25T08:22:49.169Z,16.00
2019-01-25T08:25:17.488Z,16.77
2019-01-25T08:27:45.899Z,17.40
2019-01-25T08:30:14.436Z,16.73
2019-01-25T08:32:42.715Z,16.63
2019-01-25T08:35:11.416Z,17.40
2019-01-25T08:37:39.832Z,16.70
2019-01-25T08:40:09.269Z,15.87
2019-01-25T08:42:37.620Z,16.93
2019-01-25T08:45:06.842Z,16.70
2019-01-25T08:47:35.183Z,16.63
2019-01-25T08:50:03.933Z,16.90
2019-01-25T08:52:35.193Z,16.77
2019-01-25T08:55:03.678Z,18.13
2019-01-25T08:57:31.956Z,17.23
2019-01-25T09:00:00.281Z,17.57
2019-01-25T09:02:28.547Z,17.33
2019-01-25T09:04:56.790Z,17.27
2019-01-25T09:07:26.612Z,16.87
2019-01-25T09:09:54.950Z,16.10
2019-01-25T09:12:23.631Z,16.57
2019-01-25T09:14:51.980Z,16.87
2019-01-25T09:17:21.232Z,17.37
2019-01-25T09:19:49.482Z,16.77
2019-01-25T09:22:17.712Z,16.43
2019-01-25T09:24:45.970Z,16.40
2019-01-25T09:27:14.222Z,16.17
2019-01-25T09:29:42.464Z,16.77
2019-01-25T09:32:10.708Z,17.10
2019-01-25T09:34:38.976Z,16.77
2019-01-25T09:37:07.228Z,16.23
2019-01-25T09:39:36.484Z,17.10
2019-01-25T09:42:04.741Z,16.97
2019-01-25T09:44:32.990Z,16.40
2019-01-25T09:47:01.281Z,16.57
2019-01-25T09:49:29.525Z,16.73
2019-01-25T09:51:57.793Z,17.30
2019-01-25T09:54:26.256Z,17.50
2019-01-25T09:56:54.536Z,16.87
2019-01-25T09:59:22.889Z,16.77
2019-01-25T10:01:51.145Z,17.47
2019-01-25T10:04:19.404Z,17.53
2019-01-25T10:06:47.768Z,17.57
2019-01-25T10:09:16.022Z,17.93
2019-01-25T10:11:44.256Z,19.10
2019-01-25T10:14:12.516Z,19.07
2019-01-25T10:16:40.791Z,19.20
2019-01-25T10:19:09.063Z,19.53
2019-01-25T10:21:37.360Z,19.77
2019-01-25T10:24:05.640Z,18.40
2019-01-25T10:26:33.889Z,19.47
2019-01-25T10:29:02.150Z,19.10
2019-01-25T10:31:30.453Z,18.83
2019-01-25T10:33:58.693Z,20.83
2019-01-25T10:36:26.966Z,19.37
2019-01-25T10:38:55.233Z,20.17
2019-01-25T10:41:23.532Z,18.43
2019-01-25T10:43:51.778Z,19.87
2019-01-25T10:46:20.058Z,18.23
2019-01-25T10:48:48.359Z,21.10
2019-01-25T10:51:16.633Z,19.70
2019-01-25T10:53:44.874Z,20.13
2019-01-25T10:56:13.222Z,19.43
2019-01-25T10:58:41.442Z,19.77
2019-01-25T11:01:09.729Z,19.43
2019-01-25T11:03:37.962Z,17.97
2019-01-25T11:06:06.219Z,15.73
2019-01-25T11:08:34.446Z,13.10
2019-01-25T11:11:02.834Z,12.63
2019-01-25T11:13:31.078Z,11.77
2019-01-25T11:15:59.393Z,12.90
2019-01-25T11:18:27.622Z,13.83
2019-01-25T11:20:55.885Z,13.57
2019-01-25T11:23:24.132Z,12.43
2019-01-25T11:25:52.407Z,12.87
2019-01-25T11:28:20.636Z,12.57
2019-01-25T11:30:48.932Z,13.03
2019-01-25T11:33:17.205Z,12.53
2019-01-25T11:35:45.501Z,13.30
2019-01-25T11:38:13.794Z,12.50
2019-01-25T11:40:43.549Z,13.50
2019-01-25T11:43:11.854Z,12.97
2019-01-25T11:45:40.253Z,12.67
2019-01-25T11:48:17.421Z,13.47
2019-01-25T11:50:45.692Z,12.63
2019-01-25T11:53:13.930Z,13.27
2019-01-25T11:55:42.204Z,13.90
2019-01-25T11:58:10.526Z,13.70
2019-01-25T12:00:41.750Z,13.23
2019-01-25T12:03:09.997Z,13.37
2019-01-25T12:05:38.333Z,14.33
2019-01-25T12:08:06.576Z,14.23
2019-01-25T12:10:34.945Z,14.63
2019-01-25T12:13:03.196Z,14.10
2019-01-25T12:15:31.486Z,14.23
2019-01-25T12:17:59.748Z,14.57
2019-01-25T12:20:28.668Z,15.07
2019-01-25T12:22:59.366Z,15.53
2019-01-25T12:25:30.599Z,15.43
2019-01-25T12:27:58.904Z,15.67
2019-01-25T12:30:28.132Z,15.50
2019-01-25T12:32:56.423Z,16.20
2019-01-25T12:35:24.711Z,15.87
2019-01-25T12:37:52.998Z,15.27
2019-01-25T12:40:21.240Z,15.27
2019-01-25T12:42:51.150Z,15.90
2019-01-25T12:45:20.454Z,16.97
2019-01-25T12:47:48.714Z,15.53
2019-01-25T12:50:18.662Z,16.80
2019-01-25T12:52:47.018Z,16.20
2019-01-25T12:55:15.296Z,17.53
2019-01-25T12:57:43.587Z,16.60
2019-01-25T13:00:12.670Z,16.23
2019-01-25T13:02:41.979Z,16.47
2019-01-25T13:05:11.330Z,15.10
2019-01-25T13:07:39.604Z,15.23
2019-01-25T13:10:08.800Z,17.07
2019-01-25T13:12:37.046Z,16.50
2019-01-25T13:15:05.463Z,16.37
2019-01-25T13:17:33.813Z,16.30
2019-01-25T13:20:02.134Z,16.97
2019-01-25T13:22:30.500Z,17.60
2019-01-25T13:24:58.835Z,16.63
2019-01-25T13:27:27.129Z,17.30
2019-01-25T13:29:55.397Z,17.30
2019-01-25T13:32:23.808Z,17.50
2019-01-25T13:34:52.055Z,17.37
2019-01-25T13:37:20.360Z,17.50
2019-01-25T13:39:48.728Z,17.00
2019-01-25T13:42:17.059Z,18.10
2019-01-25T13:44:45.315Z,17.60
2019-01-25T13:47:13.560Z,17.53
2019-01-25T13:49:42.719Z,18.97
2019-01-25T13:52:11.007Z,17.83
2019-01-25T13:54:39.312Z,19.57
2019-01-25T13:57:07.565Z,19.53
2019-01-25T13:59:37.287Z,20.33
2019-01-25T14:02:05.605Z,21.10
2019-01-25T14:04:33.972Z,19.83
2019-01-25T14:07:02.283Z,21.37
2019-01-25T14:09:30.583Z,21.23
2019-01-25T14:11:58.856Z,21.17
2019-01-25T14:14:27.172Z,21.40
2019-01-25T14:16:55.443Z,20.93
2019-01-25T14:19:23.746Z,21.80
2019-01-25T14:21:52.074Z,20.70
2019-01-25T14:24:20.446Z,20.93
2019-01-25T14:26:48.716Z,19.77
2019-01-25T14:29:19.157Z,20.30
2019-01-25T14:31:47.444Z,20.27
2019-01-25T14:34:15.743Z,20.40
2019-01-25T14:36:43.992Z,20.73
2019-01-25T14:39:12.277Z,22.03
2019-01-25T14:41:40.599Z,21.30
2019-01-25T14:44:08.913Z,20.63
2019-01-25T14:46:37.178Z,20.83
2019-01-25T14:49:05.470Z,22.63
2019-01-25T14:51:33.721Z,21.90
2019-01-25T14:54:01.992Z,22.03
2019-01-25T14:56:30.345Z,20.97
2019-01-25T14:58:58.668Z,21.27
2019-01-25T15:01:27.002Z,21.73
2019-01-25T15:03:55.440Z,21.53
2019-01-25T15:06:24.907Z,21.77
2019-01-25T15:08:53.235Z,21.87
2019-01-25T15:11:22.536Z,21.67
2019-01-25T15:13:50.795Z,22.60
2019-01-25T15:16:19.073Z,21.83
2019-01-25T15:18:47.346Z,23.37
2019-01-25T15:21:15.732Z,23.67
2019-01-25T15:23:44.123Z,22.03
2019-01-25T15:26:12.537Z,25.67
2019-01-25T15:28:40.963Z,22.30
2019-01-25T15:31:09.269Z,25.43
2019-01-25T15:33:37.571Z,24.37
2019-01-25T15:36:05.822Z,25.73
2019-01-25T15:38:34.189Z,25.03
2019-01-25T15:41:04.208Z,25.23
2019-01-25T15:43:32.660Z,25.83
2019-01-25T15:46:00.979Z,26.33
2019-01-25T15:48:29.313Z,25.80
2019-01-25T15:50:57.630Z,25.07
2019-01-25T15:53:25.910Z,25.17
2019-01-25T15:55:54.189Z,25.53
2019-01-25T15:58:23.916Z,25.10
2019-01-25T16:00:52.574Z,26.17
2019-01-25T16:03:20.936Z,25.37
2019-01-25T16:05:49.224Z,26.53
2019-01-25T16:08:17.540Z,26.70
2019-01-25T16:10:45.824Z,26.07
2019-01-25T16:13:14.084Z,26.93
2019-01-25T16:15:42.407Z,24.20
2019-01-25T16:18:10.637Z,26.13
2019-01-25T16:20:38.934Z,25.07
2019-01-25T16:23:07.202Z,26.03
2019-01-25T16:25:35.465Z,25.93
2019-01-25T16:28:03.808Z,25.00
2019-01-25T16:30:33.236Z,25.13
2019-01-25T16:33:01.528Z,25.40
2019-01-25T16:35:47.565Z,25.63
2019-01-25T16:38:18.930Z,25.20
2019-01-25T16:40:47.285Z,26.17
2019-01-25T16:43:15.589Z,26.03
2019-01-25T16:45:44.195Z,24.53
2019-01-25T16:48:12.464Z,23.50
2019-01-25T16:50:40.827Z,23.53
2019-01-25T16:53:10.265Z,22.77
2019-01-25T16:55:38.579Z,22.77
2019-01-25T16:58:06.945Z,21.73
2019-01-25T17:00:36.437Z,22.20
2019-01-25T17:03:04.735Z,21.50
2019-01-25T17:05:33.197Z,21.33
2019-01-25T17:08:01.577Z,20.37
2019-01-25T17:10:29.884Z,22.73
2019-01-25T17:12:58.155Z,20.80
2019-01-25T17:15:26.782Z,21.90
2019-01-25T17:17:55.065Z,21.67
2019-01-25T17:20:24.813Z,21.10
2019-01-25T17:22:53.156Z,20.37
2019-01-25T17:25:22.175Z,22.07
2019-01-25T17:27:50.495Z,21.30
2019-01-25T17:30:22.842Z,21.30
2019-01-25T17:32:51.403Z,21.53
2019-01-25T17:35:23.861Z,21.27
2019-01-25T17:37:52.120Z,21.20
2019-01-25T17:40:21.268Z,21.00
2019-01-25T17:42:49.591Z,22.63
2019-01-25T17:45:17.854Z,22.93
2019-01-25T17:47:46.088Z,21.97
2019-01-25T17:50:14.445Z,22.37
2019-01-25T17:52:42.802Z,21.33
2019-01-25T17:55:11.203Z,22.40
2019-01-25T17:57:39.560Z,23.30
2019-01-25T18:00:10.202Z,23.77
2019-01-25T18:02:38.495Z,22.93
2019-01-25T18:05:07.063Z,23.33
2019-01-25T18:07:37.069Z,21.90
2019-01-25T18:10:05.827Z,21.77
2019-01-25T18:12:34.122Z,21.57
2019-01-25T18:15:02.419Z,21.17
2019-01-25T18:17:30.777Z,20.90
2019-01-25T18:19:59.123Z,21.10
2019-01-25T18:22:28.452Z,20.90
2019-01-25T18:24:56.811Z,20.60
2019-01-25T18:27:25.094Z,20.50
2019-01-25T18:29:57.813Z,20.67
2019-01-25T18:32:26.370Z,20.47
2019-01-25T18:34:55.020Z,20.83
2019-01-25T18:37:23.768Z,20.97
2019-01-25T18:39:52.645Z,21.03
2019-01-25T18:42:20.962Z,20.20
2019-01-25T18:44:56.516Z,21.57
2019-01-25T18:47:19.263Z,20.60
2019-01-25T18:49:47.776Z,20.93
2019-01-25T18:52:16.050Z,20.60
2019-01-25T18:54:44.378Z,21.17
2019-01-25T18:57:12.637Z,21.03
2019-01-25T18:59:40.991Z,20.67
2019-01-25T19:02:09.314Z,20.27
2019-01-25T19:04:37.573Z,19.63
2019-01-25T19:07:06.176Z,20.67
2019-01-25T19:09:34.485Z,19.50
2019-01-25T19:12:02.748Z,19.10
2019-01-25T19:14:31.120Z,20.23
2019-01-25T19:16:59.398Z,20.20
2019-01-25T19:19:27.789Z,21.07
2019-01-25T19:21:56.076Z,21.00
2019-01-25T19:24:25.138Z,19.87
2019-01-25T19:26:53.644Z,19.67
2019-01-25T19:29:22.003Z,20.27
2019-01-25T19:31:50.537Z,20.17
2019-01-25T19:34:18.797Z,19.17
2019-01-25T19:36:47.171Z,19.90
2019-01-25T19:39:15.635Z,19.93
2019-01-25T19:41:43.878Z,20.40
2019-01-25T19:44:12.195Z,20.77
2019-01-25T19:46:40.453Z,21.00
2019-01-25T19:49:08.739Z,20.07
2019-01-25T19:51:37.024Z,20.80
2019-01-25T19:54:05.343Z,20.80
2019-01-25T19:56:34.142Z,19.57
2019-01-25T19:59:02.605Z,19.67
2019-01-25T20:01:31.022Z,20.30
2019-01-25T20:03:59.327Z,19.73
2019-01-25T20:06:27.658Z,20.33
2019-01-25T20:08:55.927Z,19.63
2019-01-25T20:11:24.206Z,19.23
2019-01-25T20:13:52.546Z,20.97
2019-01-25T20:16:20.796Z,19.30
2019-01-25T20:18:49.095Z,19.50
2019-01-25T20:21:17.434Z,19.37
2019-01-25T20:23:45.761Z,20.87
2019-01-25T20:26:14.177Z,19.97
2019-01-25T20:28:42.806Z,20.83
2019-01-25T20:31:12.100Z,21.20
2019-01-25T20:33:40.840Z,20.90
2019-01-25T20:36:09.238Z,21.03
2019-01-25T20:38:37.576Z,21.07
2019-01-25T20:41:07.049Z,22.03
2019-01-25T20:43:35.599Z,22.13
2019-01-25T20:46:03.942Z,22.07
2019-01-25T20:48:32.300Z,21.90
2019-01-25T20:51:00.735Z,20.63
2019-01-25T20:53:29.071Z,21.63
2019-01-25T20:55:57.355Z,21.93
2019-01-25T20:58:25.663Z,22.97
2019-01-25T21:00:54.597Z,21.57
2019-01-25T21:03:23.010Z,22.67
2019-01-25T21:05:51.448Z,22.40
2019-01-25T21:08:19.792Z,20.87
2019-01-25T21:10:48.079Z,21.50
2019-01-25T21:13:16.420Z,22.33
2019-01-25T21:15:44.751Z,21.80
2019-01-25T21:18:12.991Z,21.50
2019-01-25T21:20:42.384Z,21.93
2019-01-25T21:23:10.756Z,22.00
2019-01-25T21:25:39.226Z,21.47
2019-01-25T21:28:07.559Z,22.10
2019-01-25T21:30:36.054Z,22.37
2019-01-25T21:33:04.551Z,22.90
2019-01-25T21:35:32.934Z,22.03
2019-01-25T21:38:01.323Z,22.20
2019-01-25T21:40:30.176Z,21.77
2019-01-25T21:42:58.563Z,22.10
2019-01-25T21:45:27.771Z,21.40
2019-01-25T21:47:56.132Z,21.20
2019-01-25T21:50:25.654Z,22.33
2019-01-25T21:52:53.996Z,22.40
2019-01-25T21:55:22.305Z,20.87
2019-01-25T21:57:50.639Z,21.37
2019-01-25T22:00:20.137Z,21.40
2019-01-25T22:02:48.406Z,21.93
2019-01-25T22:05:16.769Z,21.70
2019-01-25T22:07:45.165Z,20.50
2019-01-25T22:10:14.849Z,21.10
2019-01-25T22:12:43.156Z,20.70
2019-01-25T22:15:12.115Z,21.17
2019-01-25T22:17:40.471Z,21.20
2019-01-25T22:20:10.887Z,20.80
2019-01-25T22:22:39.209Z,20.73
2019-01-25T22:25:07.666Z,20.53
2019-01-25T22:27:36.021Z,21.13
2019-01-25T22:30:05.366Z,19.97
2019-01-25T22:32:33.649Z,21.53
2019-01-25T22:35:02.113Z,20.23
2019-01-25T22:37:30.537Z,21.03
2019-01-25T22:39:58.810Z,19.97
2019-01-25T22:42:27.106Z,20.03
2019-01-25T22:44:55.416Z,19.90
2019-01-25T22:47:23.766Z,20.17
2019-01-25T22:49:52.046Z,18.90
2019-01-25T22:52:20.290Z,20.93
2019-01-25T22:54:48.591Z,19.67
2019-01-25T22:57:16.828Z,19.77
2019-01-25T22:59:45.151Z,18.60
2019-01-25T23:02:13.500Z,19.23
2019-01-25T23:04:45.518Z,18.40
2019-01-25T23:07:22.718Z,18.57
2019-01-25T23:09:52.055Z,19.13
2019-01-25T23:12:20.360Z,17.87
2019-01-25T23:14:48.596Z,17.30
2019-01-25T23:17:16.934Z,18.47
2019-01-25T23:19:45.171Z,18.53
2019-01-25T23:22:15.799Z,18.23
2019-01-25T23:24:44.114Z,19.50
2019-01-25T23:27:12.431Z,18.17
2019-01-25T23:29:40.700Z,17.27
2019-01-25T23:32:08.962Z,17.67
2019-01-25T23:34:37.244Z,18.70
2019-01-25T23:37:05.542Z,18.30
2019-01-25T23:39:33.862Z,18.23
2019-01-25T23:42:02.219Z,17.33
2019-01-25T23:44:30.531Z,18.00
2019-01-25T23:46:58.836Z,17.87
2019-01-25T23:49:27.172Z,18.07
2019-01-25T23:51:55.423Z,17.30
2019-01-25T23:54:23.827Z,17.40
2019-01-25T23:56:52.106Z,17.37
2019-01-25T23:59:20.532Z,18.40
